createdAt,value
2022-09-20T00:01:17.183Z,7.48
2022-09-20T00:02:20.368Z,7.46
2022-09-20T00:03:23.667Z,7.46
2022-09-20T00:04:27.021Z,7.47
2022-09-20T00:05:30.391Z,7.52
2022-09-20T00:06:35.833Z,7.51
2022-09-20T00:07:40.276Z,7.48
2022-09-20T00:08:43.920Z,7.48
2022-09-20T00:09:47.191Z,7.48
2022-09-20T00:10:50.777Z,7.46
2022-09-20T00:11:54.515Z,7.49
2022-09-20T00:12:58.051Z,7.51
2022-09-20T00:14:03.101Z,7.50
2022-09-20T00:15:07.909Z,7.49
2022-09-20T00:16:14.570Z,7.51
2022-09-20T00:17:17.780Z,7.50
2022-09-20T00:18:20.985Z,7.53
2022-09-20T00:19:24.153Z,7.51
2022-09-20T00:20:27.485Z,7.50
2022-09-20T00:21:33.146Z,7.46
2022-09-20T00:22:36.614Z,7.49
2022-09-20T00:23:39.773Z,7.49
2022-09-20T00:24:48.237Z,7.51
2022-09-20T00:26:00.614Z,7.51
2022-09-20T00:27:04.675Z,7.50
2022-09-20T00:28:08.828Z,7.51
2022-09-20T00:29:14.027Z,7.50
2022-09-20T00:30:17.341Z,7.52
2022-09-20T00:31:20.784Z,7.53
2022-09-20T00:32:24.087Z,7.53
2022-09-20T00:33:48.012Z,7.53
2022-09-20T00:35:11.090Z,7.52
2022-09-20T00:36:14.540Z,7.51
2022-09-20T00:37:17.811Z,7.52
2022-09-20T00:38:21.210Z,7.51
2022-09-20T00:39:24.575Z,7.48
2022-09-20T00:40:27.986Z,7.51
2022-09-20T00:41:32.537Z,7.41
2022-09-20T00:42:35.907Z,7.47
2022-09-20T00:43:46.641Z,7.47
2022-09-20T00:44:55.578Z,7.46
2022-09-20T00:45:59.230Z,7.45
2022-09-20T00:47:03.225Z,7.47
2022-09-20T00:48:33.100Z,7.45
2022-09-20T00:49:39.107Z,7.41
2022-09-20T00:50:54.114Z,7.43
2022-09-20T00:52:02.533Z,7.47
2022-09-20T00:53:09.449Z,7.43
2022-09-20T00:54:20.291Z,7.47
2022-09-20T00:55:24.472Z,7.44
2022-09-20T00:56:33.132Z,7.41
2022-09-20T00:57:38.936Z,7.43
2022-09-20T00:58:47.005Z,7.42
2022-09-20T00:59:53.005Z,7.39
2022-09-20T01:00:58.304Z,7.45
2022-09-20T01:02:16.591Z,7.46
2022-09-20T01:03:23.297Z,7.47
2022-09-20T01:04:27.762Z,7.46
2022-09-20T01:05:31.308Z,7.47
2022-09-20T01:06:35.503Z,7.49
2022-09-20T01:07:39.220Z,7.44
2022-09-20T01:08:47.962Z,7.43
2022-09-20T01:09:52.090Z,7.47
2022-09-20T01:10:55.421Z,7.42
2022-09-20T01:12:03.790Z,7.41
2022-09-20T01:13:07.127Z,7.40
2022-09-20T01:14:13.271Z,7.40
2022-09-20T01:15:17.020Z,7.44
2022-09-20T01:16:21.868Z,7.41
2022-09-20T01:17:28.151Z,7.41
2022-09-20T01:18:35.557Z,7.44
2022-09-20T01:20:00.496Z,7.42
2022-09-20T01:21:05.782Z,7.40
2022-09-20T01:22:33.930Z,7.39
2022-09-20T01:24:13.190Z,7.37
2022-09-20T01:25:54.299Z,7.33
2022-09-20T01:27:09.435Z,7.31
2022-09-20T01:28:13.559Z,7.29
2022-09-20T01:29:31.921Z,7.34
2022-09-20T01:30:49.248Z,7.35
2022-09-20T01:31:56.891Z,7.30
2022-09-20T01:33:21.610Z,7.26
2022-09-20T01:34:34.073Z,7.29
2022-09-20T01:35:39.491Z,7.28
2022-09-20T01:36:42.655Z,7.26
2022-09-20T01:38:06.985Z,7.30
2022-09-20T01:39:19.580Z,7.16
2022-09-20T01:40:33.794Z,7.26
2022-09-20T01:41:39.828Z,7.27
2022-09-20T01:43:05.735Z,7.27
2022-09-20T01:44:23.140Z,7.22
2022-09-20T01:45:32.618Z,7.23
2022-09-20T01:46:37.360Z,7.21
2022-09-20T01:48:13.251Z,7.20
2022-09-20T01:49:44.305Z,7.19
2022-09-20T01:51:02.655Z,7.17
2022-09-20T01:52:11.824Z,7.19
2022-09-20T01:53:21.007Z,7.21
2022-09-20T01:54:30.545Z,7.22
2022-09-20T01:55:40.796Z,7.21
2022-09-20T01:57:01.850Z,7.22
2022-09-20T01:58:19.997Z,7.20
2022-09-20T01:59:41.915Z,7.18
2022-09-20T02:01:23.135Z,7.17
2022-09-20T02:02:56.586Z,7.17
2022-09-20T02:04:34.116Z,7.17
2022-09-20T02:06:03.500Z,7.16
2022-09-20T02:07:21.491Z,7.16
2022-09-20T02:08:52.809Z,7.16
2022-09-20T02:10:04.295Z,7.16
2022-09-20T02:11:17.196Z,7.15
2022-09-20T02:12:29.416Z,7.15
2022-09-20T02:13:51.386Z,7.09
2022-09-20T02:15:03.490Z,7.16
2022-09-20T02:16:37.824Z,7.19
2022-09-20T02:17:59.311Z,7.20
2022-09-20T02:19:14.497Z,7.18
2022-09-20T02:20:32.675Z,7.13
2022-09-20T02:22:14.635Z,7.15
2022-09-20T02:23:17.970Z,7.15
2022-09-20T02:24:39.640Z,7.18
2022-09-20T02:25:45.767Z,7.16
2022-09-20T02:27:13.712Z,7.19
2022-09-20T02:28:32.113Z,7.19
2022-09-20T02:29:47.466Z,7.21
2022-09-20T02:31:03.100Z,7.19
2022-09-20T02:32:24.333Z,7.20
2022-09-20T02:34:05.219Z,7.20
2022-09-20T02:35:33.051Z,7.20
2022-09-20T02:36:48.222Z,7.20
2022-09-20T02:38:28.896Z,7.19
2022-09-20T02:40:07.664Z,7.18
2022-09-20T02:41:22.753Z,7.20
2022-09-20T02:42:37.428Z,7.24
2022-09-20T02:44:05.085Z,7.24
2022-09-20T02:45:18.826Z,7.24
2022-09-20T02:46:37.494Z,7.28
2022-09-20T02:47:43.609Z,7.28
2022-09-20T02:49:11.427Z,7.31
2022-09-20T02:50:30.209Z,7.29
2022-09-20T02:51:44.204Z,7.29
2022-09-20T02:53:11.942Z,7.29
2022-09-20T02:54:27.345Z,7.28
2022-09-20T02:55:55.126Z,7.30
2022-09-20T02:57:20.840Z,7.29
2022-09-20T02:58:35.744Z,7.29
2022-09-20T03:00:13.257Z,7.28
2022-09-20T03:01:45.699Z,7.29
2022-09-20T03:02:55.246Z,7.27
2022-09-20T03:04:07.324Z,7.32
2022-09-20T03:05:30.220Z,7.33
2022-09-20T03:06:39.405Z,7.30
2022-09-20T03:08:16.355Z,7.32
2022-09-20T03:09:25.431Z,7.32
2022-09-20T03:10:39.465Z,7.29
2022-09-20T03:11:58.887Z,7.28
2022-09-20T03:13:26.634Z,7.26
2022-09-20T03:14:42.680Z,7.28
2022-09-20T03:15:58.224Z,7.27
2022-09-20T03:17:13.515Z,7.27
2022-09-20T03:18:27.333Z,7.29
2022-09-20T03:20:06.564Z,7.28
2022-09-20T03:21:18.645Z,7.27
2022-09-20T03:22:30.727Z,7.27
2022-09-20T03:24:04.700Z,7.26
2022-09-20T03:25:28.266Z,7.25
2022-09-20T03:26:53.007Z,7.25
2022-09-20T03:28:17.555Z,7.23
2022-09-20T03:29:47.470Z,7.21
2022-09-20T03:31:01.007Z,7.21
2022-09-20T03:32:27.596Z,7.24
2022-09-20T03:33:54.052Z,7.20
2022-09-20T03:35:15.152Z,7.21
2022-09-20T03:36:30.554Z,7.19
2022-09-20T03:37:48.053Z,7.19
2022-09-20T03:39:16.331Z,7.19
2022-09-20T03:41:04.111Z,7.16
2022-09-20T03:42:29.348Z,7.16
2022-09-20T03:43:35.551Z,7.17
2022-09-20T03:45:08.071Z,7.17
2022-09-20T03:46:22.781Z,7.17
2022-09-20T03:47:58.607Z,7.20
2022-09-20T03:49:04.793Z,7.18
2022-09-20T03:50:29.156Z,7.18
2022-09-20T03:51:49.106Z,7.18
2022-09-20T03:53:17.120Z,7.16
2022-09-20T03:54:48.467Z,7.20
2022-09-20T03:55:58.755Z,7.19
2022-09-20T03:57:13.947Z,7.23
2022-09-20T03:58:51.166Z,7.20
2022-09-20T04:00:09.377Z,7.19
2022-09-20T04:01:15.552Z,7.19
2022-09-20T04:02:39.119Z,7.21
2022-09-20T04:04:02.268Z,7.21
2022-09-20T04:05:10.439Z,7.21
2022-09-20T04:06:32.129Z,7.31
2022-09-20T04:07:56.596Z,7.33
2022-09-20T04:09:26.829Z,7.33
2022-09-20T04:11:08.426Z,7.32
2022-09-20T04:12:20.611Z,7.29
2022-09-20T04:13:32.308Z,7.32
2022-09-20T04:15:05.408Z,7.30
2022-09-20T04:16:23.826Z,7.29
2022-09-20T04:17:44.767Z,7.30
2022-09-20T04:19:14.285Z,7.29
2022-09-20T04:20:40.456Z,7.32
2022-09-20T04:21:57.281Z,7.32
2022-09-20T04:23:15.925Z,7.32
2022-09-20T04:24:44.960Z,7.32
2022-09-20T04:25:51.386Z,7.35
2022-09-20T04:27:12.986Z,7.39
2022-09-20T04:28:59.535Z,7.35
2022-09-20T04:30:07.932Z,7.35
2022-09-20T04:32:00.692Z,7.40
2022-09-20T04:33:12.263Z,7.33
2022-09-20T04:34:23.195Z,7.34
2022-09-20T04:35:47.830Z,7.35
2022-09-20T04:37:05.773Z,7.34
2022-09-20T04:38:20.135Z,7.37
2022-09-20T04:39:29.103Z,7.36
2022-09-20T04:40:55.414Z,7.40
2022-09-20T04:42:30.351Z,7.40
2022-09-20T04:44:22.104Z,7.38
2022-09-20T04:45:53.041Z,7.35
2022-09-20T04:47:36.821Z,7.34
2022-09-20T04:49:03.551Z,7.35
2022-09-20T04:50:23.323Z,7.35
2022-09-20T04:52:06.012Z,7.38
2022-09-20T04:53:43.676Z,7.37
2022-09-20T04:55:36.171Z,7.42
2022-09-20T04:56:45.279Z,7.46
2022-09-20T04:58:06.928Z,7.44
2022-09-20T04:59:10.852Z,7.44
2022-09-20T05:00:20.658Z,7.38
2022-09-20T05:01:48.312Z,7.37
2022-09-20T05:03:29.750Z,7.41
2022-09-20T05:04:51.467Z,7.35
2022-09-20T05:06:30.587Z,7.33
2022-09-20T05:08:00.166Z,7.36
2022-09-20T05:09:24.660Z,7.38
2022-09-20T05:10:51.680Z,7.37
2022-09-20T05:12:04.036Z,7.36
2022-09-20T05:13:50.526Z,7.38
2022-09-20T05:14:56.519Z,7.35
2022-09-20T05:16:17.143Z,7.38
2022-09-20T05:17:40.255Z,7.39
2022-09-20T05:19:01.800Z,7.40
2022-09-20T05:20:14.650Z,7.43
2022-09-20T05:21:34.956Z,7.47
2022-09-20T05:22:57.372Z,7.48
2022-09-20T05:24:40.885Z,7.52
2022-09-20T05:25:52.219Z,7.53
2022-09-20T05:27:04.580Z,7.55
2022-09-20T05:28:29.555Z,7.52
2022-09-20T05:30:06.715Z,7.57
2022-09-20T05:31:42.101Z,7.60
2022-09-20T05:33:10.765Z,7.62
2022-09-20T05:34:55.821Z,7.64
2022-09-20T05:36:05.154Z,7.68
2022-09-20T05:37:37.008Z,7.69
2022-09-20T05:39:03.750Z,7.76
2022-09-20T05:40:46.461Z,7.77
2022-09-20T05:42:02.906Z,7.77
2022-09-20T05:43:14.428Z,7.76
2022-09-20T05:44:23.489Z,7.78
2022-09-20T05:45:48.662Z,7.74
2022-09-20T05:47:18.396Z,7.75
2022-09-20T05:48:24.244Z,7.77
2022-09-20T05:49:47.364Z,7.75
2022-09-20T05:51:04.038Z,7.77
2022-09-20T05:52:15.988Z,7.79
2022-09-20T05:53:56.390Z,7.77
2022-09-20T05:55:24.381Z,7.75
2022-09-20T05:56:43.375Z,7.85
2022-09-20T05:58:12.310Z,7.92
2022-09-20T05:59:30.382Z,8.02
2022-09-20T06:00:44.109Z,8.13
2022-09-20T06:01:53.390Z,8.23
2022-09-20T06:03:19.767Z,8.30
2022-09-20T06:04:31.554Z,8.30
2022-09-20T06:05:43.542Z,8.31
2022-09-20T06:07:10.780Z,8.29
2022-09-20T06:08:30.875Z,8.25
2022-09-20T06:09:46.261Z,8.24
2022-09-20T06:10:54.996Z,8.20
2022-09-20T06:12:20.819Z,8.19
2022-09-20T06:13:47.480Z,8.17
2022-09-20T06:15:04.222Z,8.18
2022-09-20T06:16:14.617Z,8.16
2022-09-20T06:17:31.360Z,8.15
2022-09-20T06:18:34.575Z,8.19
2022-09-20T06:20:24.710Z,8.19
2022-09-20T06:21:49.233Z,8.24
2022-09-20T06:22:56.871Z,8.27
2022-09-20T06:24:02.532Z,8.25
2022-09-20T06:25:08.362Z,8.30
2022-09-20T06:26:36.858Z,8.36
2022-09-20T06:27:58.544Z,8.38
2022-09-20T06:29:06.423Z,8.45
2022-09-20T06:30:26.708Z,8.52
2022-09-20T06:31:30.465Z,8.60
2022-09-20T06:32:56.515Z,8.72
2022-09-20T06:34:14.729Z,8.80
2022-09-20T06:35:18.326Z,8.84
2022-09-20T06:36:51.700Z,8.90
2022-09-20T06:39:21.100Z,8.95
2022-09-20T06:41:20.085Z,9.07
2022-09-20T06:42:27.057Z,9.12
2022-09-20T06:43:31.921Z,9.20
2022-09-20T06:44:38.310Z,9.28
2022-09-20T06:45:43.073Z,9.33
2022-09-20T06:46:46.270Z,9.41
2022-09-20T06:47:51.483Z,9.50
2022-09-20T06:48:55.521Z,9.57
2022-09-20T06:50:01.978Z,9.66
2022-09-20T06:51:05.725Z,9.78
2022-09-20T06:52:14.791Z,9.87
2022-09-20T06:53:23.627Z,9.82
2022-09-20T06:54:27.950Z,9.81
2022-09-20T06:55:37.635Z,9.83
2022-09-20T06:56:40.868Z,9.91
2022-09-20T06:57:44.389Z,9.95
2022-09-20T06:58:47.530Z,9.97
2022-09-20T06:59:50.690Z,10.03
2022-09-20T07:00:54.066Z,10.08
2022-09-20T07:01:57.387Z,10.27
2022-09-20T07:03:03.396Z,10.35
2022-09-20T07:04:06.799Z,10.40
2022-09-20T07:05:17.716Z,10.56
2022-09-20T07:06:20.847Z,10.72
2022-09-20T07:07:24.716Z,10.71
2022-09-20T07:08:30.396Z,10.70
2022-09-20T07:09:33.550Z,10.63
2022-09-20T07:10:36.995Z,10.65
2022-09-20T07:11:40.323Z,10.63
2022-09-20T07:12:43.626Z,10.68
2022-09-20T07:13:52.296Z,10.72
2022-09-20T07:14:55.639Z,10.65
2022-09-20T07:16:07.347Z,10.65
2022-09-20T07:17:12.915Z,10.74
2022-09-20T07:18:16.355Z,10.83
2022-09-20T07:19:19.903Z,10.87
2022-09-20T07:20:23.475Z,10.87
2022-09-20T07:21:26.811Z,10.86
2022-09-20T07:22:30.385Z,10.81
2022-09-20T07:23:33.751Z,10.72
2022-09-20T07:24:36.947Z,10.57
2022-09-20T07:25:40.121Z,10.44
2022-09-20T07:26:56.601Z,10.31
2022-09-20T07:28:00.011Z,10.09
2022-09-20T07:29:03.271Z,10.00
2022-09-20T07:30:08.310Z,9.80
2022-09-20T07:31:11.585Z,9.66
2022-09-20T07:32:18.728Z,9.55
2022-09-20T07:33:22.326Z,9.50
2022-09-20T07:34:27.207Z,9.50
2022-09-20T07:35:30.649Z,9.41
2022-09-20T07:36:34.190Z,9.31
2022-09-20T07:37:37.818Z,9.27
2022-09-20T07:38:42.215Z,9.22
2022-09-20T07:39:46.171Z,9.19
2022-09-20T07:41:00.892Z,9.16
2022-09-20T07:42:06.572Z,9.14
2022-09-20T07:43:13.199Z,9.15
2022-09-20T07:44:24.558Z,9.15
2022-09-20T07:45:28.142Z,9.15
2022-09-20T07:46:36.240Z,9.14
2022-09-20T07:47:41.420Z,9.12
2022-09-20T07:48:45.575Z,9.16
2022-09-20T07:49:48.822Z,9.15
2022-09-20T07:50:57.317Z,9.21
2022-09-20T07:52:00.622Z,9.25
2022-09-20T07:53:06.451Z,9.25
2022-09-20T07:54:12.115Z,9.29
2022-09-20T07:55:15.494Z,9.32
2022-09-20T07:56:20.945Z,9.39
2022-09-20T07:57:24.158Z,9.48
2022-09-20T07:58:29.280Z,9.55
2022-09-20T07:59:35.325Z,9.77
2022-09-20T08:00:38.535Z,10.15
2022-09-20T08:01:42.996Z,10.38
2022-09-20T08:02:48.455Z,10.42
2022-09-20T08:03:52.185Z,10.46
2022-09-20T08:04:55.600Z,10.55
2022-09-20T08:06:13.578Z,10.71
2022-09-20T08:07:16.754Z,10.78
2022-09-20T08:08:22.151Z,10.77
2022-09-20T08:09:25.491Z,10.81
2022-09-20T08:10:28.828Z,10.79
2022-09-20T08:11:32.339Z,10.70
2022-09-20T08:14:08.855Z,10.45
2022-09-20T08:15:14.840Z,10.39
2022-09-20T08:16:21.156Z,10.51
2022-09-20T08:17:24.457Z,10.95
2022-09-20T08:18:28.585Z,11.32
2022-09-20T08:19:31.833Z,11.87
2022-09-20T08:20:41.170Z,12.33
2022-09-20T08:21:45.126Z,12.49
2022-09-20T08:23:06.278Z,12.43
2022-09-20T08:24:11.744Z,12.43
2022-09-20T08:25:26.604Z,12.66
2022-09-20T08:26:31.718Z,12.75
2022-09-20T08:27:35.416Z,12.60
2022-09-20T08:28:39.774Z,12.57
2022-09-20T08:29:42.900Z,12.60
2022-09-20T08:30:45.978Z,12.93
2022-09-20T08:31:49.382Z,13.15
2022-09-20T08:32:54.103Z,13.23
2022-09-20T08:33:59.284Z,13.14
2022-09-20T08:35:02.630Z,13.03
2022-09-20T08:36:07.645Z,12.94
2022-09-20T08:37:10.890Z,12.79
2022-09-20T08:41:07.515Z,12.94
2022-09-20T08:42:15.160Z,12.87
2022-09-20T08:43:22.227Z,12.89
2022-09-20T08:45:01.032Z,12.96
2022-09-20T08:46:12.149Z,13.05
2022-09-20T08:47:25.882Z,13.25
2022-09-20T08:48:33.953Z,13.47
2022-09-20T08:49:38.792Z,13.53
2022-09-20T08:50:42.268Z,13.55
2022-09-20T08:51:50.750Z,13.61
2022-09-20T08:53:00.213Z,13.71
2022-09-20T08:54:07.418Z,13.78
2022-09-20T08:55:20.759Z,13.89
2022-09-20T08:56:29.126Z,14.10
2022-09-20T08:57:37.372Z,14.26
2022-09-20T08:58:40.682Z,14.24
2022-09-20T08:59:44.943Z,14.14
2022-09-20T09:00:48.295Z,14.08
2022-09-20T09:01:53.841Z,13.97
2022-09-20T09:03:03.547Z,13.73
2022-09-20T09:04:23.344Z,13.69
2022-09-20T09:05:33.430Z,13.59
2022-09-20T09:06:36.740Z,13.56
2022-09-20T09:07:40.330Z,13.54
2022-09-20T09:08:44.742Z,13.52
2022-09-20T09:09:52.050Z,13.60
2022-09-20T09:10:58.807Z,13.72
2022-09-20T09:12:02.316Z,13.72
2022-09-20T09:13:07.539Z,13.74
2022-09-20T09:14:43.034Z,13.60
2022-09-20T09:15:53.470Z,13.46
2022-09-20T09:16:57.124Z,13.36
2022-09-20T09:18:00.644Z,13.23
2022-09-20T09:19:34.079Z,13.11
2022-09-20T09:20:48.003Z,13.07
2022-09-20T09:21:51.145Z,13.09
2022-09-20T09:23:09.210Z,13.07
2022-09-20T09:24:19.473Z,13.14
2022-09-20T09:25:32.381Z,13.07
2022-09-20T09:26:39.107Z,13.08
2022-09-20T09:28:00.918Z,13.13
2022-09-20T09:29:16.330Z,13.51
2022-09-20T09:30:27.314Z,13.93
2022-09-20T09:31:30.556Z,14.10
2022-09-20T09:32:35.319Z,14.17
2022-09-20T09:33:45.215Z,14.19
2022-09-20T09:34:52.682Z,14.12
2022-09-20T09:36:04.547Z,14.07
2022-09-20T09:37:27.822Z,13.95
2022-09-20T09:38:38.425Z,13.87
2022-09-20T09:39:41.650Z,13.81
2022-09-20T09:41:02.484Z,13.78
2022-09-20T09:42:23.822Z,13.66
2022-09-20T09:43:29.290Z,13.45
2022-09-20T09:44:34.062Z,13.20
2022-09-20T09:45:43.240Z,12.92
2022-09-20T09:46:46.419Z,12.65
2022-09-20T09:47:49.645Z,12.34
2022-09-20T09:49:11.271Z,12.16
2022-09-20T09:50:22.110Z,12.08
2022-09-20T09:51:26.067Z,11.98
2022-09-20T09:52:41.092Z,11.89
2022-09-20T09:53:45.191Z,11.78
2022-09-20T09:54:53.185Z,11.70
2022-09-20T09:56:13.889Z,11.60
2022-09-20T09:57:33.916Z,11.52
2022-09-20T09:58:56.369Z,11.41
2022-09-20T10:00:17.565Z,11.27
2022-09-20T10:01:44.533Z,11.11
2022-09-20T10:03:09.069Z,10.80
2022-09-20T10:04:22.811Z,10.35
2022-09-20T10:05:35.483Z,9.96
2022-09-20T10:06:50.515Z,9.65
2022-09-20T10:08:01.316Z,9.35
2022-09-20T10:09:28.174Z,9.10
2022-09-20T10:10:34.509Z,8.92
2022-09-20T10:11:43.570Z,8.89
2022-09-20T10:13:09.989Z,8.85
2022-09-20T10:14:21.897Z,8.87
2022-09-20T10:15:35.912Z,8.91
2022-09-20T10:16:45.209Z,8.94
2022-09-20T10:17:56.366Z,8.98
2022-09-20T10:19:02.123Z,9.08
2022-09-20T10:20:26.351Z,9.09
2022-09-20T10:21:49.028Z,9.16
2022-09-20T10:24:43.147Z,9.25
2022-09-20T10:26:08.235Z,9.37
2022-09-20T10:27:29.680Z,9.58
2022-09-20T10:28:32.885Z,9.72
2022-09-20T10:29:54.370Z,9.85
2022-09-20T10:31:12.549Z,9.96
2022-09-20T10:32:27.799Z,10.12
2022-09-20T10:33:49.888Z,10.31
2022-09-20T10:34:59.115Z,10.65
2022-09-20T10:36:08.520Z,10.98
2022-09-20T10:37:20.230Z,11.28
2022-09-20T10:38:31.051Z,11.59
2022-09-20T10:39:34.214Z,11.88
2022-09-20T10:41:02.420Z,12.17
2022-09-20T10:42:36.695Z,12.58
2022-09-20T10:44:04.221Z,13.12
2022-09-20T10:45:08.533Z,13.60
2022-09-20T10:46:31.382Z,13.97
2022-09-20T10:47:39.104Z,14.30
2022-09-20T10:48:48.724Z,14.55
2022-09-20T10:49:51.832Z,14.78
2022-09-20T10:50:58.720Z,15.01
2022-09-20T10:52:08.528Z,15.23
2022-09-20T10:53:11.597Z,15.39
2022-09-20T10:54:17.425Z,15.58
2022-09-20T10:55:20.559Z,15.84
2022-09-20T10:56:33.777Z,16.04
2022-09-20T10:57:55.900Z,16.17
2022-09-20T10:59:07.984Z,16.44
2022-09-20T11:00:26.993Z,16.66
2022-09-20T11:01:39.451Z,16.87
2022-09-20T11:02:42.760Z,17.04
2022-09-20T11:03:53.253Z,17.04
2022-09-20T11:04:56.246Z,17.07
2022-09-20T11:06:06.725Z,17.16
2022-09-20T11:07:22.073Z,17.27
2022-09-20T11:08:28.785Z,17.52
2022-09-20T11:09:36.602Z,17.62
2022-09-20T11:10:58.518Z,17.73
2022-09-20T11:12:17.499Z,17.99
2022-09-20T11:13:23.776Z,18.08
2022-09-20T11:14:33.863Z,18.24
2022-09-20T11:15:47.356Z,18.33
2022-09-20T11:17:02.158Z,18.37
2022-09-20T11:18:12.542Z,18.15
2022-09-20T11:19:15.784Z,17.81
2022-09-20T11:20:21.609Z,17.67
2022-09-20T11:21:47.972Z,17.49
2022-09-20T11:23:11.482Z,17.38
2022-09-20T11:24:30.630Z,17.23
2022-09-20T11:25:40.498Z,17.20
2022-09-20T11:26:46.880Z,17.02
2022-09-20T11:27:53.084Z,17.04
2022-09-20T11:28:59.403Z,17.17
2022-09-20T11:30:02.582Z,17.26
2022-09-20T11:31:14.905Z,17.24
2022-09-20T11:32:23.321Z,17.22
2022-09-20T11:33:32.212Z,17.29
2022-09-20T11:34:40.328Z,17.53
2022-09-20T11:35:47.218Z,17.71
2022-09-20T11:36:57.745Z,17.84
2022-09-20T11:38:05.053Z,17.79
2022-09-20T11:39:17.916Z,17.63
2022-09-20T11:40:38.886Z,17.40
2022-09-20T11:41:42.332Z,17.24
2022-09-20T11:42:46.319Z,17.16
2022-09-20T11:43:49.794Z,17.29
2022-09-20T11:45:03.299Z,17.39
2022-09-20T11:46:09.127Z,17.58
2022-09-20T11:47:36.614Z,17.72
2022-09-20T11:48:46.722Z,17.92
2022-09-20T11:50:08.432Z,18.29
2022-09-20T11:51:27.073Z,18.48
2022-09-20T11:52:56.129Z,18.61
2022-09-20T11:54:12.692Z,18.70
2022-09-20T11:55:17.021Z,18.43
2022-09-20T11:56:22.427Z,18.38
2022-09-20T11:57:25.752Z,18.53
2022-09-20T11:58:29.049Z,18.80
2022-09-20T11:59:37.358Z,19.10
2022-09-20T12:00:41.788Z,19.32
2022-09-20T12:01:45.858Z,19.58
2022-09-20T12:02:51.332Z,19.81
2022-09-20T12:04:08.964Z,20.00
2022-09-20T12:05:41.553Z,20.11
2022-09-20T12:06:45.536Z,19.92
2022-09-20T12:07:53.666Z,19.63
2022-09-20T12:09:07.047Z,19.23
2022-09-20T12:10:21.994Z,18.68
2022-09-20T12:11:30.664Z,18.24
2022-09-20T12:12:41.887Z,17.83
2022-09-20T12:13:57.581Z,17.46
2022-09-20T12:15:02.117Z,17.11
2022-09-20T12:16:35.088Z,16.70
2022-09-20T12:17:47.581Z,16.16
2022-09-20T12:18:54.172Z,15.83
2022-09-20T12:19:57.520Z,15.38
2022-09-20T12:21:02.856Z,14.97
2022-09-20T12:22:09.023Z,14.65
2022-09-20T12:23:32.077Z,14.34
2022-09-20T12:24:36.813Z,13.98
2022-09-20T12:25:40.300Z,13.80
2022-09-20T12:26:44.347Z,13.62
2022-09-20T12:27:50.416Z,13.49
2022-09-20T12:28:54.796Z,13.43
2022-09-20T12:30:18.016Z,13.42
2022-09-20T12:31:32.097Z,13.44
2022-09-20T12:32:42.086Z,13.49
2022-09-20T12:34:02.258Z,13.59
2022-09-20T12:35:25.805Z,13.77
2022-09-20T12:36:31.021Z,14.00
2022-09-20T12:37:34.907Z,14.09
2022-09-20T12:38:39.422Z,14.20
2022-09-20T12:39:50.700Z,14.42
2022-09-20T12:41:14.408Z,14.69
2022-09-20T12:42:21.823Z,15.01
2022-09-20T12:43:25.644Z,15.30
2022-09-20T12:44:42.442Z,15.62
2022-09-20T12:45:52.431Z,16.02
2022-09-20T12:47:13.023Z,16.26
2022-09-20T12:48:19.690Z,16.47
2022-09-20T12:49:50.457Z,16.58
2022-09-20T12:51:22.220Z,16.55
2022-09-20T12:53:00.680Z,16.27
2022-09-20T12:54:06.810Z,15.94
2022-09-20T12:55:11.423Z,15.75
2022-09-20T12:56:18.858Z,15.61
2022-09-20T12:57:29.167Z,15.42
2022-09-20T12:58:35.841Z,15.27
2022-09-20T12:59:39.225Z,15.20
2022-09-20T13:00:46.391Z,15.18
2022-09-20T13:01:49.917Z,15.28
2022-09-20T13:02:57.895Z,15.42
2022-09-20T13:04:20.142Z,15.61
2022-09-20T13:05:40.574Z,15.78
2022-09-20T13:06:44.531Z,16.00
2022-09-20T13:07:52.582Z,16.23
2022-09-20T13:09:06.270Z,16.57
2022-09-20T13:10:23.823Z,16.93
2022-09-20T13:11:27.921Z,17.18
2022-09-20T13:12:32.747Z,17.22
2022-09-20T13:13:40.722Z,17.19
2022-09-20T13:14:44.884Z,17.20
2022-09-20T13:15:50.363Z,17.24
2022-09-20T13:17:13.931Z,17.39
2022-09-20T13:18:21.372Z,17.53
2022-09-20T13:19:30.245Z,17.52
2022-09-20T13:20:35.512Z,17.30
2022-09-20T13:21:41.129Z,17.18
2022-09-20T13:22:47.305Z,17.02
2022-09-20T13:23:52.627Z,16.81
2022-09-20T13:25:01.211Z,16.56
2022-09-20T13:26:09.552Z,16.32
2022-09-20T13:27:19.276Z,16.19
2022-09-20T13:28:32.608Z,16.04
2022-09-20T13:29:43.181Z,15.80
2022-09-20T13:30:46.711Z,15.54
2022-09-20T13:31:50.128Z,15.29
2022-09-20T13:32:53.557Z,15.03
2022-09-20T13:34:12.503Z,15.01
2022-09-20T13:35:24.665Z,15.18
2022-09-20T13:36:29.532Z,15.39
2022-09-20T13:37:32.972Z,15.59
2022-09-20T13:38:38.154Z,15.69
2022-09-20T13:39:42.173Z,15.78
2022-09-20T13:40:49.566Z,15.85
2022-09-20T13:41:53.214Z,15.88
2022-09-20T13:43:22.202Z,15.88
2022-09-20T13:44:25.695Z,15.85
2022-09-20T13:45:33.657Z,15.89
2022-09-20T13:46:43.598Z,15.93
2022-09-20T13:47:51.594Z,15.89
2022-09-20T13:48:59.895Z,15.69
2022-09-20T13:50:10.871Z,15.62
2022-09-20T13:51:18.380Z,15.66
2022-09-20T13:52:26.117Z,15.70
2022-09-20T13:53:47.105Z,15.74
2022-09-20T13:54:50.546Z,15.70
2022-09-20T13:55:57.358Z,15.70
2022-09-20T13:57:02.974Z,15.74
2022-09-20T13:58:07.838Z,15.79
2022-09-20T13:59:19.316Z,15.86
2022-09-20T14:00:23.273Z,15.96
2022-09-20T14:01:30.546Z,16.01
2022-09-20T14:02:34.499Z,15.96
2022-09-20T14:03:37.680Z,15.87
2022-09-20T14:04:41.032Z,15.82
2022-09-20T14:05:52.085Z,15.76
2022-09-20T14:06:57.060Z,15.66
2022-09-20T14:08:00.860Z,15.47
2022-09-20T14:09:10.463Z,15.20
2022-09-20T14:10:31.928Z,14.83
2022-09-20T14:11:37.168Z,14.61
2022-09-20T14:12:40.330Z,14.45
2022-09-20T14:13:45.172Z,14.30
2022-09-20T14:14:48.453Z,14.07
2022-09-20T14:15:52.034Z,13.81
2022-09-20T14:16:58.802Z,13.57
2022-09-20T14:18:04.643Z,13.37
2022-09-20T14:19:08.442Z,13.13
2022-09-20T14:20:15.570Z,12.94
2022-09-20T14:21:22.888Z,12.61
2022-09-20T14:22:28.755Z,12.34
2022-09-20T14:23:32.875Z,12.20
2022-09-20T14:24:37.745Z,12.04
2022-09-20T14:25:41.033Z,11.91
2022-09-20T14:27:00.059Z,11.80
2022-09-20T14:28:24.576Z,11.76
2022-09-20T14:29:34.732Z,11.72
2022-09-20T14:30:37.843Z,11.67
2022-09-20T14:31:45.244Z,11.63
2022-09-20T14:32:53.556Z,11.55
2022-09-20T14:33:59.158Z,11.50
2022-09-20T14:35:22.517Z,11.41
2022-09-20T14:36:29.464Z,11.34
2022-09-20T14:37:35.292Z,11.34
2022-09-20T14:38:38.337Z,11.33
2022-09-20T14:40:08.285Z,11.31
2022-09-20T14:41:12.445Z,11.25
2022-09-20T14:42:23.262Z,11.22
2022-09-20T14:43:34.790Z,11.16
2022-09-20T14:44:38.272Z,11.13
2022-09-20T14:45:43.475Z,11.05
2022-09-20T14:46:47.129Z,10.99
2022-09-20T14:48:11.535Z,10.94
2022-09-20T14:49:26.884Z,10.91
2022-09-20T14:50:41.422Z,10.88
2022-09-20T14:51:45.123Z,10.84
2022-09-20T14:52:59.108Z,10.81
2022-09-20T14:54:05.291Z,10.80
2022-09-20T14:55:14.399Z,10.76
2022-09-20T14:56:27.122Z,10.74
2022-09-20T14:57:30.448Z,10.72
2022-09-20T14:58:34.672Z,10.70
2022-09-20T14:59:41.902Z,10.67
2022-09-20T15:01:06.090Z,10.62
2022-09-20T15:02:10.452Z,10.55
2022-09-20T15:03:31.156Z,10.47
2022-09-20T15:04:38.046Z,10.39
2022-09-20T15:05:42.770Z,10.33
2022-09-20T15:06:46.295Z,10.30
2022-09-20T15:07:49.872Z,10.27
2022-09-20T15:08:53.013Z,10.24
2022-09-20T15:09:56.335Z,10.24
2022-09-20T15:10:59.664Z,10.26
2022-09-20T15:12:12.421Z,10.28
2022-09-20T15:13:16.826Z,10.30
2022-09-20T15:14:20.067Z,10.28
2022-09-20T15:15:23.487Z,10.28
2022-09-20T15:16:34.969Z,10.29
2022-09-20T15:17:38.311Z,10.28
2022-09-20T15:18:42.479Z,10.24
2022-09-20T15:19:51.575Z,10.22
2022-09-20T15:20:55.217Z,10.21
2022-09-20T15:21:59.721Z,10.21
2022-09-20T15:23:03.234Z,10.23
2022-09-20T15:24:08.904Z,10.20
2022-09-20T15:25:16.972Z,10.20
2022-09-20T15:26:21.153Z,10.23
2022-09-20T15:27:28.183Z,10.22
2022-09-20T15:28:33.297Z,10.24
2022-09-20T15:29:36.693Z,10.31
2022-09-20T15:30:40.743Z,10.40
2022-09-20T15:31:48.062Z,10.46
2022-09-20T15:32:52.756Z,10.51
2022-09-20T15:33:56.192Z,10.56
2022-09-20T15:35:01.802Z,10.64
2022-09-20T15:36:05.695Z,10.67
2022-09-20T15:37:09.078Z,10.76
2022-09-20T15:38:12.712Z,10.79
2022-09-20T15:39:15.782Z,10.81
2022-09-20T15:40:19.207Z,10.82
2022-09-20T15:41:22.336Z,10.78
2022-09-20T15:42:25.516Z,10.73
2022-09-20T15:43:31.263Z,10.66
2022-09-20T15:44:35.172Z,10.58
2022-09-20T15:45:49.560Z,10.54
2022-09-20T15:46:53.621Z,10.51
2022-09-20T15:47:57.934Z,10.51
2022-09-20T15:49:03.060Z,10.53
2022-09-20T15:50:08.712Z,10.55
2022-09-20T15:51:12.448Z,10.58
2022-09-20T15:52:15.626Z,10.59
2022-09-20T15:53:18.783Z,10.60
2022-09-20T15:54:22.007Z,10.59
2022-09-20T15:55:25.192Z,10.57
2022-09-20T15:56:29.839Z,10.57
2022-09-20T15:57:34.386Z,10.57